Time;durP1;ratioP1;P1;durP2;ratioP2;P2;SDS_P1;SDS_P2;PMS_P1;PMS_P2;Temp;Humidity;BMP_temperature;BMP_pressure;BME280_temperature;BME280_humidity;BME280_pressure;Samples;Min_cycle;Max_cycle;Signal;HPM_P1;HPM_P2
2021/11/05 00:00:00;;;;;;;4.63;4.07;;;6.70;99.90;;;;;;5157231;27;20591;-67
2021/11/05 00:02:29;;;;;;;5.25;4.22;;;6.70;99.90;;;;;;5157625;27;20417;-67
2021/11/05 00:04:56;;;;;;;4.80;4.20;;;6.70;99.90;;;;;;5157469;27;20031;-67
2021/11/05 00:07:22;;;;;;;4.28;3.88;;;6.70;99.90;;;;;;5157423;27;20359;-67
2021/11/05 00:09:48;;;;;;;4.82;4.20;;;6.70;99.90;;;;;;5157425;27;20044;-67
2021/11/05 00:12:13;;;;;;;4.63;4.22;;;6.70;99.90;;;;;;5157320;27;20049;-67
2021/11/05 00:14:41;;;;;;;4.20;3.80;;;6.70;99.90;;;;;;5157622;27;20063;-67
2021/11/05 00:17:07;;;;;;;5.75;4.32;;;6.70;99.90;;;;;;5157207;27;20091;-67
2021/11/05 00:19:32;;;;;;;5.43;4.40;;;6.70;99.90;;;;;;5157328;27;20494;-67
2021/11/05 00:21:58;;;;;;;4.10;3.70;;;6.70;99.90;;;;;;5157241;27;20542;-68
2021/11/05 00:24:24;;;;;;;5.47;4.15;;;6.70;99.90;;;;;;5156939;27;20131;-68
2021/11/05 00:26:50;;;;;;;6.72;4.40;;;6.70;99.90;;;;;;5157103;27;20505;-68
2021/11/05 00:29:15;;;;;;;4.55;4.13;;;6.70;99.90;;;;;;5157131;27;20026;-68
2021/11/05 00:31:41;;;;;;;5.28;4.53;;;6.70;99.90;;;;;;5156990;27;20022;-68
2021/11/05 00:34:07;;;;;;;4.57;4.18;;;6.60;99.90;;;;;;5156871;27;20034;-69
2021/11/05 00:36:33;;;;;;;5.15;4.50;;;6.60;99.90;;;;;;5156774;27;20097;-69
2021/11/05 00:38:58;;;;;;;4.63;3.95;;;6.60;99.90;;;;;;5157113;27;20106;-69
2021/11/05 00:41:24;;;;;;;5.43;4.03;;;6.60;99.90;;;;;;5156777;27;20470;-69
2021/11/05 00:43:50;;;;;;;4.78;4.28;;;6.60;99.90;;;;;;5156930;27;20058;-68
2021/11/05 00:46:15;;;;;;;4.85;4.35;;;6.60;99.90;;;;;;5156916;27;20489;-69
2021/11/05 00:48:41;;;;;;;5.05;4.55;;;6.60;99.90;;;;;;5156957;27;20106;-69
2021/11/05 00:51:07;;;;;;;6.03;4.30;;;6.60;99.90;;;;;;5156787;27;20023;-68
2021/11/05 00:53:33;;;;;;;4.50;4.10;;;6.60;99.90;;;;;;5156436;27;20505;-68
2021/11/05 00:55:59;;;;;;;4.65;4.18;;;6.60;99.90;;;;;;5156537;27;20023;-68
2021/11/05 00:58:25;;;;;;;5.03;4.35;;;6.60;99.90;;;;;;5156413;27;20034;-68
2021/11/05 01:00:50;;;;;;;5.07;4.57;;;6.60;99.90;;;;;;5156320;27;20051;-68
2021/11/05 01:03:16;;;;;;;4.53;4.13;;;6.60;99.90;;;;;;5156170;27;20031;-69
2021/11/05 01:05:43;;;;;;;4.75;4.03;;;6.60;99.90;;;;;;5156438;27;20038;-68
2021/11/05 01:08:10;;;;;;;4.35;3.95;;;6.60;99.90;;;;;;5156310;27;20098;-67
2021/11/05 01:10:37;;;;;;;4.90;4.40;;;6.50;99.90;;;;;;5155498;27;20406;-70
2021/11/05 01:13:06;;;;;;;4.18;3.72;;;6.50;99.90;;;;;;5156479;27;20053;-70
2021/11/05 01:15:33;;;;;;;6.05;3.78;;;6.50;99.90;;;;;;5156044;27;20145;-70
2021/11/05 01:17:59;;;;;;;5.43;4.53;;;6.50;99.90;;;;;;5156397;27;20388;-70
2021/11/05 01:20:25;;;;;;;4.07;3.67;;;6.50;99.90;;;;;;5155981;27;20022;-70
2021/11/05 01:22:51;;;;;;;4.43;4.03;;;6.50;99.90;;;;;;5155996;27;20478;-70
2021/11/05 01:25:18;;;;;;;4.38;3.97;;;6.50;99.90;;;;;;5155985;27;20027;-70
2021/11/05 01:27:46;;;;;;;3.88;3.47;;;6.50;99.90;;;;;;5156085;27;20011;-70
2021/11/05 01:30:13;;;;;;;4.07;3.67;;;6.50;99.90;;;;;;5155854;27;20478;-70
2021/11/05 01:32:39;;;;;;;4.20;3.80;;;6.40;99.90;;;;;;5156060;27;20027;-70
2021/11/05 01:35:06;;;;;;;3.83;3.42;;;6.40;99.90;;;;;;5156060;27;20023;-71
2021/11/05 01:37:32;;;;;;;4.10;3.70;;;6.50;99.90;;;;;;5155455;27;20023;-70
2021/11/05 01:39:57;;;;;;;3.42;3.13;;;6.40;99.90;;;;;;5155742;27;20023;-70
2021/11/05 01:42:23;;;;;;;4.55;3.38;;;6.40;99.90;;;;;;5155847;27;20045;-70
2021/11/05 01:44:49;;;;;;;3.58;3.15;;;6.40;99.90;;;;;;5155531;27;20039;-71
2021/11/05 01:47:17;;;;;;;4.32;3.92;;;6.40;99.90;;;;;;5155491;27;20026;-70
2021/11/05 01:49:44;;;;;;;4.05;3.67;;;6.40;99.90;;;;;;5155698;27;20046;-70
2021/11/05 01:52:09;;;;;;;6.82;3.63;;;6.40;99.90;;;;;;5155756;27;20087;-70
2021/11/05 01:54:35;;;;;;;4.78;4.22;;;6.40;99.90;;;;;;5155203;27;20023;-70
2021/11/05 01:57:01;;;;;;;6.28;4.53;;;6.40;99.90;;;;;;5155286;27;20058;-70
2021/11/05 01:59:32;;;;;;;5.80;4.70;;;6.40;99.90;;;;;;5154877;27;20050;-71
2021/11/05 02:02:00;;;;;;;7.78;4.55;;;6.40;99.90;;;;;;5155392;27;20027;-70
2021/11/05 02:04:26;;;;;;;7.38;4.70;;;6.40;99.90;;;;;;5154907;27;20083;-71
2021/11/05 02:06:53;;;;;;;5.10;4.55;;;6.40;99.90;;;;;;5155114;27;20029;-71
2021/11/05 02:09:23;;;;;;;6.18;4.57;;;6.40;99.90;;;;;;5155351;27;20432;-70
2021/11/05 02:11:51;;;;;;;4.95;4.20;;;6.40;99.90;;;;;;5155445;27;20049;-71
2021/11/05 02:14:20;;;;;;;6.18;3.60;;;6.40;99.90;;;;;;5155239;27;20027;-71
2021/11/05 02:16:49;;;;;;;7.60;5.05;;;6.40;99.90;;;;;;5154892;27;20065;-71
2021/11/05 02:19:17;;;;;;;27.03;6.43;;;6.30;99.90;;;;;;5154795;27;20022;-71
2021/11/05 02:21:46;;;;;;;28.63;5.70;;;6.30;99.90;;;;;;5153924;27;20023;-69
2021/11/05 02:24:12;;;;;;;50.50;6.47;;;6.20;99.90;;;;;;5154710;27;20435;-69
2021/11/05 02:53:17;;;;;;;3.05;2.50;;;6.00;99.90;;;;;;5154287;27;20022;-69
2021/11/05 02:55:43;;;;;;;3.00;2.70;;;6.00;99.90;;;;;;5153896;27;20460;-69
2021/11/05 02:58:09;;;;;;;2.53;2.33;;;6.00;99.90;;;;;;5154467;27;20034;-70
2021/11/05 03:00:35;;;;;;;2.72;2.53;;;5.90;99.90;;;;;;5153769;27;20047;-69
2021/11/05 03:03:01;;;;;;;3.28;2.85;;;5.90;99.90;;;;;;5154062;27;20046;-69
2021/11/05 03:05:26;;;;;;;2.97;2.67;;;5.90;99.90;;;;;;5153867;27;20427;-69
2021/11/05 03:07:52;;;;;;;3.20;2.90;;;5.90;99.90;;;;;;5154021;27;20114;-70
2021/11/05 03:10:18;;;;;;;2.83;2.63;;;5.90;99.90;;;;;;5153986;27;20475;-70
2021/11/05 03:12:45;;;;;;;2.38;2.17;;;6.00;99.90;;;;;;5153834;27;20431;-70
2021/11/05 03:15:11;;;;;;;2.47;2.28;;;5.90;99.90;;;;;;5154094;27;20037;-70
2021/11/05 03:17:38;;;;;;;2.10;1.90;;;6.00;99.90;;;;;;5153730;27;20027;-70
2021/11/05 03:20:07;;;;;;;2.80;2.03;;;5.90;99.90;;;;;;5153721;27;20022;-70
2021/11/05 03:22:34;;;;;;;1.90;1.80;;;5.90;99.90;;;;;;5153704;27;20029;-70
2021/11/05 03:24:59;;;;;;;2.13;1.92;;;5.90;99.90;;;;;;5153894;27;20038;-70
2021/11/05 03:27:25;;;;;;;2.10;1.90;;;5.90;99.90;;;;;;5154021;27;20019;-70
2021/11/05 03:29:51;;;;;;;1.85;1.65;;;5.90;99.90;;;;;;5153536;27;20055;-70
2021/11/05 03:32:17;;;;;;;1.85;1.75;;;5.90;99.90;;;;;;5152460;27;20495;-70
2021/11/05 03:34:44;;;;;;;6.90;1.95;;;5.80;99.90;;;;;;5153090;27;20023;-70
2021/11/05 03:37:10;;;;;;;1.85;1.73;;;5.80;99.90;;;;;;5153700;27;20031;-70
2021/11/05 03:39:36;;;;;;;1.60;1.50;;;5.90;99.90;;;;;;5153504;27;20034;-70
2021/11/05 03:42:03;;;;;;;1.60;1.50;;;5.90;99.90;;;;;;5153883;27;20030;-69
2021/11/05 03:44:29;;;;;;;1.60;1.50;;;5.90;99.90;;;;;;5153596;27;20370;-69
2021/11/05 03:46:55;;;;;;;2.00;1.80;;;5.90;99.90;;;;;;5153668;27;20018;-70
2021/11/05 03:49:21;;;;;;;1.60;1.50;;;5.90;99.90;;;;;;5153812;27;20030;-69
2021/11/05 03:51:47;;;;;;;1.55;1.45;;;5.80;99.90;;;;;;5153769;27;20023;-69
2021/11/05 03:54:13;;;;;;;2.55;1.40;;;5.90;99.90;;;;;;5153438;27;20545;-69
2021/11/05 03:56:38;;;;;;;1.40;1.30;;;5.90;99.90;;;;;;5153365;27;20015;-70
2021/11/05 03:59:04;;;;;;;1.50;1.40;;;5.90;99.90;;;;;;5153242;27;20144;-69
2021/11/05 04:01:30;;;;;;;1.40;1.30;;;5.80;99.90;;;;;;5153449;27;20022;-70
2021/11/05 04:03:56;;;;;;;1.92;1.70;;;5.80;99.90;;;;;;5153543;27;20023;-67
2021/11/05 04:06:23;;;;;;;1.42;1.33;;;5.80;99.90;;;;;;5153412;27;20510;-69
2021/11/05 04:08:49;;;;;;;1.38;1.27;;;5.70;99.90;;;;;;5153435;27;20484;-69
2021/11/05 04:11:15;;;;;;;1.30;1.20;;;5.70;99.90;;;;;;5153339;27;20115;-70
2021/11/05 04:13:42;;;;;;;1.50;1.40;;;5.70;99.90;;;;;;5153480;27;20029;-70
2021/11/05 04:16:08;;;;;;;1.45;1.27;;;5.70;99.90;;;;;;5153276;27;20050;-70
2021/11/05 04:18:34;;;;;;;1.10;1.10;;;5.80;99.90;;;;;;5153065;27;20056;-70
2021/11/05 04:21:00;;;;;;;1.30;1.20;;;5.80;99.90;;;;;;5153202;27;20263;-70
2021/11/05 04:23:26;;;;;;;1.40;1.30;;;5.80;99.90;;;;;;5153415;27;20347;-70
2021/11/05 04:25:52;;;;;;;1.40;1.30;;;5.90;99.90;;;;;;5153196;27;20019;-70
2021/11/05 04:28:18;;;;;;;2.03;1.45;;;5.90;99.90;;;;;;5153161;27;20367;-70
2021/11/05 04:30:45;;;;;;;1.30;1.20;;;5.90;99.90;;;;;;5153144;27;20015;-70
2021/11/05 04:33:12;;;;;;;1.60;1.50;;;5.90;99.90;;;;;;5153122;27;20019;-70
2021/11/05 04:35:38;;;;;;;1.42;1.33;;;5.90;99.90;;;;;;5152858;27;20027;-70
2021/11/05 04:38:05;;;;;;;1.60;1.50;;;5.90;99.90;;;;;;5153449;27;20048;-70
2021/11/05 04:40:30;;;;;;;1.40;1.30;;;5.90;99.90;;;;;;5152800;27;20033;-70
2021/11/05 04:42:56;;;;;;;1.85;1.50;;;5.90;99.90;;;;;;5153210;27;20018;-70
2021/11/05 04:45:22;;;;;;;1.13;1.13;;;5.80;99.90;;;;;;5153922;27;20360;-70
2021/11/05 04:47:48;;;;;;;1.73;1.63;;;5.80;99.90;;;;;;5156626;27;20019;-70
2021/11/05 04:50:14;;;;;;;1.60;1.50;;;5.90;99.90;;;;;;5156603;27;20424;-70
2021/11/05 04:52:47;;;;;;;1.50;1.40;;;5.90;99.90;;;;;;5156514;27;20094;-69
2021/11/05 04:55:13;;;;;;;1.40;1.30;;;5.90;99.90;;;;;;5156530;27;20025;-69
2021/11/05 04:57:39;;;;;;;1.38;1.27;;;5.90;99.90;;;;;;5156325;27;20015;-69
2021/11/05 05:00:06;;;;;;;1.42;1.33;;;5.90;99.90;;;;;;5156305;27;20060;-69
2021/11/05 05:02:32;;;;;;;1.40;1.30;;;5.90;99.90;;;;;;5156502;27;20095;-69
2021/11/05 05:04:58;;;;;;;1.40;1.30;;;5.90;99.90;;;;;;5156396;27;20482;-69
2021/11/05 05:07:23;;;;;;;1.20;1.20;;;5.90;99.90;;;;;;5156689;27;20466;-69
2021/11/05 05:09:49;;;;;;;1.52;1.42;;;5.90;99.90;;;;;;5156088;27;20493;-69
2021/11/05 05:12:15;;;;;;;2.42;1.10;;;5.80;99.90;;;;;;5156363;27;20026;-69
2021/11/05 05:14:41;;;;;;;1.63;1.52;;;5.90;99.90;;;;;;5156006;27;20401;-69
2021/11/05 05:17:07;;;;;;;1.42;1.33;;;5.90;99.90;;;;;;5156082;27;20054;-69
2021/11/05 05:19:33;;;;;;;1.45;1.30;;;5.90;99.90;;;;;;5156098;27;20042;-69
2021/11/05 05:21:59;;;;;;;2.40;1.40;;;5.90;99.90;;;;;;5155968;27;20031;-69
2021/11/05 05:24:24;;;;;;;1.40;1.30;;;5.90;99.90;;;;;;5156255;27;20035;-69
2021/11/05 05:26:50;;;;;;;1.30;1.20;;;5.90;99.90;;;;;;5155805;27;20494;-69
2021/11/05 05:29:16;;;;;;;1.50;1.40;;;5.80;99.90;;;;;;5156147;27;20065;-69
2021/11/05 05:31:41;;;;;;;1.30;1.20;;;5.90;99.90;;;;;;5155690;27;20531;-69
2021/11/05 05:34:07;;;;;;;2.63;1.38;;;5.80;99.90;;;;;;5155736;27;20042;-66
2021/11/05 05:36:33;;;;;;;2.55;1.40;;;5.80;99.90;;;;;;5155751;27;20030;-66
2021/11/05 05:38:58;;;;;;;2.65;1.73;;;5.80;99.90;;;;;;5155461;27;20505;-68
2021/11/05 05:41:24;;;;;;;1.55;1.45;;;5.90;99.90;;;;;;5155417;27;20018;-65
2021/11/05 05:43:50;;;;;;;0.90;0.90;;;7.90;99.90;;;;;;5155614;27;20084;-64
2021/11/05 05:46:15;;;;;;;0.88;0.88;;;9.10;99.90;;;;;;5155531;27;20033;-66
2021/11/05 05:48:41;;;;;;;1.17;0.93;;;9.00;99.90;;;;;;5151957;27;20023;-65
2021/11/05 05:51:07;;;;;;;1.10;1.10;;;8.40;99.90;;;;;;5141076;27;20544;-65
2021/11/05 05:53:33;;;;;;;1.10;1.10;;;7.90;99.90;;;;;;5144536;27;20075;-66
2021/11/05 05:55:59;;;;;;;0.95;0.95;;;7.50;99.90;;;;;;5143068;27;20023;-66
2021/11/05 05:58:24;;;;;;;4.00;1.20;;;7.20;99.90;;;;;;5141229;27;20474;-66
2021/11/05 06:00:50;;;;;;;1.00;1.00;;;7.00;99.90;;;;;;5136118;27;20092;-66
2021/11/05 06:03:16;;;;;;;1.92;1.10;;;6.90;99.90;;;;;;5144519;27;20534;-66
2021/11/05 06:05:42;;;;;;;1.02;1.02;;;6.80;99.90;;;;;;5142907;27;20031;-66
2021/11/05 06:08:08;;;;;;;1.50;1.40;;;6.70;99.90;;;;;;5139581;27;20028;-65
2021/11/05 06:10:34;;;;;;;2.25;1.20;;;6.60;99.90;;;;;;5142963;27;20083;-65
2021/11/05 06:13:00;;;;;;;1.73;1.40;;;6.50;99.90;;;;;;5144545;27;20039;-65
2021/11/05 06:15:26;;;;;;;1.40;1.30;;;6.40;99.90;;;;;;5148758;27;20065;-65
2021/11/05 06:17:52;;;;;;;1.50;1.40;;;6.40;99.90;;;;;;5139461;27;20025;-65
2021/11/05 06:20:19;;;;;;;1.50;1.40;;;6.30;99.90;;;;;;5144051;27;20015;-64
2021/11/05 06:22:45;;;;;;;5.43;1.60;;;6.30;99.90;;;;;;5143087;27;20010;-65
2021/11/05 06:25:11;;;;;;;1.50;1.40;;;6.20;99.90;;;;;;5144801;27;20023;-65
2021/11/05 06:27:38;;;;;;;1.45;1.35;;;6.20;99.90;;;;;;5146357;27;20066;-65
2021/11/05 06:30:08;;;;;;;1.80;1.40;;;6.10;99.90;;;;;;5152136;27;20471;-65
2021/11/05 06:32:34;;;;;;;2.00;1.60;;;6.10;99.90;;;;;;5134249;27;20375;-64
2021/11/05 06:35:00;;;;;;;1.45;1.35;;;6.10;99.90;;;;;;5133636;27;20027;-66
2021/11/05 06:37:26;;;;;;;1.50;1.40;;;6.20;99.90;;;;;;5134147;27;20486;-65
2021/11/05 06:39:52;;;;;;;1.40;1.30;;;6.10;99.90;;;;;;5132176;27;20413;-65
2021/11/05 06:42:21;;;;;;;1.48;1.38;;;6.10;99.90;;;;;;5133739;27;20124;-64
2021/11/05 06:44:48;;;;;;;1.50;1.40;;;6.10;99.90;;;;;;5133253;27;20038;-65
2021/11/05 06:47:14;;;;;;;1.58;1.48;;;6.00;99.90;;;;;;5132228;27;20110;-65
2021/11/05 06:49:40;;;;;;;1.83;1.58;;;6.00;99.90;;;;;;5133231;27;20067;-65
2021/11/05 06:52:06;;;;;;;2.03;1.70;;;6.00;99.90;;;;;;5133796;27;20019;-65
2021/11/05 06:54:34;;;;;;;1.77;1.67;;;6.00;99.90;;;;;;5133618;27;20480;-65
2021/11/05 06:56:59;;;;;;;2.00;1.65;;;5.90;99.90;;;;;;5134677;27;20025;-65
2021/11/05 06:59:25;;;;;;;1.23;1.13;;;6.00;99.90;;;;;;5134140;27;20498;-64
2021/11/05 07:01:51;;;;;;;1.50;1.40;;;6.80;99.90;;;;;;5133316;27;20035;-64
2021/11/05 07:04:16;;;;;;;1.52;1.42;;;7.30;99.90;;;;;;5133064;27;20390;-65
2021/11/05 07:06:45;;;;;;;5.00;1.70;;;7.10;99.90;;;;;;5133187;27;20023;-65
2021/11/05 07:09:16;;;;;;;1.85;1.50;;;6.90;99.90;;;;;;5134847;27;20031;-66
2021/11/05 07:11:42;;;;;;;2.72;1.50;;;6.70;99.90;;;;;;5139644;27;20023;-66
2021/11/05 07:14:08;;;;;;;1.70;1.60;;;6.60;99.90;;;;;;5150576;27;20022;-66
2021/11/05 07:16:36;;;;;;;1.60;1.50;;;6.50;99.90;;;;;;5153461;27;20026;-66
2021/11/05 07:19:02;;;;;;;1.58;1.48;;;6.40;99.90;;;;;;5152447;27;20083;-68
2021/11/05 07:21:28;;;;;;;3.63;1.60;;;6.30;99.90;;;;;;5153809;27;20023;-70
2021/11/05 07:24:00;;;;;;;1.52;1.40;;;6.30;99.90;;;;;;5146204;27;20377;-71
2021/11/05 07:26:33;;;;;;;1.80;1.70;;;6.20;99.90;;;;;;5137300;27;20031;-73
2021/11/05 07:29:00;;;;;;;1.92;1.60;;;6.10;99.90;;;;;;5130791;27;20057;-74
2021/11/05 07:31:26;;;;;;;1.90;1.80;;;6.10;99.90;;;;;;5133680;27;20403;-68
2021/11/05 07:33:52;;;;;;;2.05;1.90;;;6.10;99.90;;;;;;5134876;27;20030;-69
2021/11/05 07:36:17;;;;;;;1.80;1.70;;;6.00;99.90;;;;;;5132856;27;20030;-69
2021/11/05 07:38:43;;;;;;;2.17;1.77;;;6.00;99.90;;;;;;5132673;27;20378;-68
2021/11/05 07:41:11;;;;;;;1.70;1.60;;;5.90;99.90;;;;;;5132769;28;20019;-67
2021/11/05 07:43:37;;;;;;;2.17;1.98;;;5.90;99.90;;;;;;5132585;28;20044;-69
2021/11/05 07:46:02;;;;;;;2.03;1.80;;;5.90;99.90;;;;;;5132009;28;20056;-69
2021/11/05 07:48:28;;;;;;;3.85;1.90;;;5.90;99.90;;;;;;5137427;27;20100;-69
2021/11/05 07:50:54;;;;;;;2.22;2.08;;;5.90;99.90;;;;;;5150172;27;20109;-72
2021/11/05 07:53:20;;;;;;;1.83;1.73;;;5.90;99.90;;;;;;5141628;27;20076;-70
2021/11/05 07:55:47;;;;;;;2.60;1.77;;;5.90;99.90;;;;;;5141126;27;20015;-69
2021/11/05 07:58:13;;;;;;;1.67;1.38;;;5.90;99.90;;;;;;5141938;27;20023;-74
2021/11/05 08:00:39;;;;;;;1.80;1.70;;;5.90;99.90;;;;;;5140793;27;20039;-69
2021/11/05 08:03:05;;;;;;;1.95;1.75;;;6.20;99.90;;;;;;5137866;27;20072;-68
2021/11/05 08:05:31;;;;;;;12.63;1.98;;;6.30;99.90;;;;;;5131177;28;20031;-68
2021/11/05 08:07:57;;;;;;;2.95;1.50;;;6.90;99.90;;;;;;5133243;27;20041;-67
2021/11/05 08:10:23;;;;;;;1.58;1.48;;;7.10;99.90;;;;;;5140419;27;20491;-68
2021/11/05 08:12:51;;;;;;;3.20;1.30;;;6.90;99.90;;;;;;5137941;27;20103;-68
2021/11/05 08:15:18;;;;;;;1.48;1.38;;;6.60;99.90;;;;;;5146327;27;20051;-68
2021/11/05 08:17:44;;;;;;;1.55;1.45;;;6.50;99.90;;;;;;5153304;27;20027;-69
2021/11/05 08:20:11;;;;;;;7.55;1.75;;;6.30;99.90;;;;;;5155480;27;20374;-66
2021/11/05 08:22:38;;;;;;;2.22;1.67;;;6.30;99.90;;;;;;5157500;27;20038;-66
2021/11/05 08:25:04;;;;;;;1.80;1.70;;;6.20;99.90;;;;;;5141045;27;20046;-66
2021/11/05 08:27:30;;;;;;;1.70;1.60;;;6.10;99.90;;;;;;5141775;27;20025;-66
2021/11/05 08:29:55;;;;;;;3.50;2.00;;;6.10;99.90;;;;;;5141346;27;20023;-68
2021/11/05 08:32:21;;;;;;;2.72;1.70;;;6.10;99.90;;;;;;5134610;27;20028;-65
2021/11/05 08:34:47;;;;;;;1.50;1.38;;;7.20;99.90;;;;;;5136043;27;20026;-65
2021/11/05 08:37:13;;;;;;;1.92;1.73;;;7.60;99.90;;;;;;5134909;27;20046;-65
2021/11/05 08:39:39;;;;;;;1.88;1.77;;;7.30;99.90;;;;;;5136009;27;20015;-65
2021/11/05 08:42:05;;;;;;;1.73;1.60;;;7.00;99.90;;;;;;5135949;27;20034;-65
2021/11/05 08:44:32;;;;;;;2.22;1.90;;;6.80;99.90;;;;;;5135904;27;20505;-65
2021/11/05 08:46:59;;;;;;;2.17;1.98;;;6.60;99.90;;;;;;5156430;27;20478;-65
2021/11/05 08:49:27;;;;;;;2.13;1.70;;;6.50;99.90;;;;;;5156992;27;20027;-65
2021/11/05 08:51:54;;;;;;;2.25;1.80;;;6.30;99.90;;;;;;5156439;27;20561;-65
2021/11/05 08:54:20;;;;;;;2.30;2.10;;;6.30;99.90;;;;;;5156924;27;20034;-65
2021/11/05 08:56:46;;;;;;;6.28;2.40;;;6.20;99.90;;;;;;5156621;27;20030;-65
2021/11/05 08:59:14;;;;;;;2.17;1.67;;;6.20;99.90;;;;;;5153361;27;20099;-65
2021/11/05 09:01:40;;;;;;;1.92;1.60;;;7.00;99.90;;;;;;5136194;27;20083;-65
2021/11/05 09:04:07;;;;;;;2.05;1.77;;;7.20;99.90;;;;;;5137794;27;20048;-65
2021/11/05 09:06:33;;;;;;;2.92;1.85;;;7.10;99.90;;;;;;5142025;27;20419;-65
2021/11/05 09:09:00;;;;;;;2.25;1.92;;;6.90;99.90;;;;;;5150409;27;20022;-64
2021/11/05 09:11:28;;;;;;;4.03;2.28;;;6.70;99.90;;;;;;5153438;27;20023;-64
2021/11/05 09:13:54;;;;;;;2.45;2.10;;;6.70;99.90;;;;;;5151624;27;20387;-65
2021/11/05 09:16:20;;;;;;;4.25;1.98;;;6.50;99.90;;;;;;5140757;27;20034;-65
2021/11/05 09:18:46;;;;;;;2.05;1.85;;;6.30;99.90;;;;;;5135318;27;20019;-65
2021/11/05 09:21:12;;;;;;;2.40;1.80;;;6.40;99.90;;;;;;5135365;27;20029;-65
2021/11/05 09:23:37;;;;;;;1.95;1.80;;;6.30;99.90;;;;;;5143370;27;20039;-65
2021/11/05 09:26:03;;;;;;;2.70;1.73;;;6.30;99.90;;;;;;5135330;27;20019;-65
2021/11/05 09:28:29;;;;;;;2.55;1.48;;;7.00;99.90;;;;;;5135584;27;20474;-64
2021/11/05 09:30:54;;;;;;;1.88;1.70;;;7.20;99.90;;;;;;5134436;27;20471;-64
2021/11/05 09:33:20;;;;;;;1.80;1.63;;;7.00;99.90;;;;;;5140980;27;20015;-64
2021/11/05 09:35:47;;;;;;;1.67;1.58;;;6.70;99.90;;;;;;5149589;27;20069;-64
2021/11/05 09:38:14;;;;;;;2.50;1.90;;;6.50;99.90;;;;;;5155743;27;20542;-64
2021/11/05 09:40:40;;;;;;;2.85;1.50;;;6.40;99.90;;;;;;5156033;27;20398;-64
2021/11/05 09:43:06;;;;;;;2.65;1.50;;;6.40;99.90;;;;;;5148840;27;20047;-64
2021/11/05 09:45:32;;;;;;;2.05;1.60;;;6.30;99.90;;;;;;5155695;27;20065;-64
2021/11/05 09:48:01;;;;;;;2.08;1.67;;;6.30;99.90;;;;;;5155685;27;20401;-64
2021/11/05 09:50:27;;;;;;;1.77;1.50;;;6.30;99.90;;;;;;5155371;27;20044;-64
2021/11/05 09:52:53;;;;;;;1.70;1.60;;;6.40;99.90;;;;;;5151659;27;20110;-64
2021/11/05 09:55:20;;;;;;;2.05;1.55;;;6.40;99.90;;;;;;5138729;27;20106;-65
2021/11/05 09:57:46;;;;;;;1.75;1.60;;;6.40;99.90;;;;;;5134536;27;20028;-65
2021/11/05 10:00:16;;;;;;;1.77;1.30;;;6.80;99.90;;;;;;5134578;27;20047;-65
2021/11/05 10:02:43;;;;;;;1.67;1.40;;;6.70;99.90;;;;;;5134911;27;20031;-65
2021/11/05 10:05:11;;;;;;;2.20;1.25;;;6.50;99.90;;;;;;5134153;27;20039;-65
2021/11/05 10:08:01;;;;;;;4.40;1.58;;;6.40;99.90;;;;;;5134821;27;20027;-65
2021/11/05 10:10:34;;;;;;;;;;;6.50;99.90;;;;;;5136398;27;20038;-65
2021/11/05 10:13:04;;;;;;;1.70;1.60;;;6.50;99.90;;;;;;5146213;27;19903;-65
2021/11/05 10:15:42;;;;;;;1.73;1.50;;;6.40;99.90;;;;;;5146534;27;20039;-65
2021/11/05 10:18:18;;;;;;;1.60;1.50;;;6.40;99.90;;;;;;5145614;27;20050;-64
2021/11/05 10:20:46;;;;;;;1.73;1.40;;;6.30;99.90;;;;;;5142727;27;20068;-64
2021/11/05 10:23:12;;;;;;;1.40;1.30;;;6.10;99.90;;;;;;5141137;27;20031;-64
2021/11/05 10:25:39;;;;;;;1.42;1.33;;;6.10;99.90;;;;;;5141635;27;20022;-65
2021/11/05 10:28:08;;;;;;;1.52;1.42;;;6.10;99.90;;;;;;5154930;27;20023;-65
2021/11/05 10:30:42;;;;;;;1.50;1.40;;;6.20;99.90;;;;;;5154894;27;20026;-65
2021/11/05 10:33:07;;;;;;;1.40;1.30;;;6.20;99.90;;;;;;5155136;27;20023;-65
2021/11/05 10:35:37;;;;;;;1.30;1.20;;;6.20;99.90;;;;;;5138834;27;20075;-65
2021/11/05 10:38:05;;;;;;;1.60;1.50;;;6.10;99.90;;;;;;5140211;27;20030;-65
2021/11/05 10:40:37;;;;;;;1.67;1.50;;;6.10;99.90;;;;;;5143739;27;20045;-65
2021/11/05 10:43:05;;;;;;;1.60;1.50;;;6.10;99.90;;;;;;5136438;27;20474;-65
2021/11/05 10:45:31;;;;;;;1.42;1.33;;;6.10;99.90;;;;;;5130545;27;20087;-65
2021/11/05 10:48:03;;;;;;;2.53;1.55;;;6.10;99.90;;;;;;5147256;27;20021;-65
2021/11/05 10:50:50;;;;;;;1.80;1.40;;;6.10;99.90;;;;;;5147997;27;20030;-66
2021/11/05 10:53:25;;;;;;;1.83;1.35;;;6.10;99.90;;;;;;5142261;27;20045;-66
2021/11/05 10:55:56;;;;;;;1.50;1.40;;;6.10;99.90;;;;;;5154078;27;20026;-66
2021/11/05 10:58:52;;;;;;;1.60;1.50;;;6.00;99.90;;;;;;5145276;27;20023;-65
2021/11/05 11:01:20;;;;;;;1.70;1.58;;;6.00;99.90;;;;;;5142521;27;20142;-65
2021/11/05 11:03:47;;;;;;;1.65;1.50;;;6.10;99.90;;;;;;5138612;27;20075;-66
2021/11/05 11:06:19;;;;;;;1.88;1.63;;;6.10;99.90;;;;;;5144430;27;20034;-65
2021/11/05 11:08:47;;;;;;;2.45;1.70;;;6.10;99.90;;;;;;5154132;27;20022;-65
2021/11/05 11:11:26;;;;;;;2.35;1.83;;;6.10;99.90;;;;;;5148404;27;20031;-65
2021/11/05 11:14:00;;;;;;;4.03;2.50;;;6.10;99.90;;;;;;5139952;27;20023;-66
2021/11/05 11:16:33;;;;;;;3.75;2.70;;;6.10;99.90;;;;;;5148214;27;20022;-66
2021/11/05 11:19:11;;;;;;;4.22;2.97;;;6.10;99.90;;;;;;5150958;27;20044;-65
2021/11/05 11:21:46;;;;;;;3.92;2.47;;;6.10;99.90;;;;;;5153668;27;20015;-66
2021/11/05 11:24:16;;;;;;;4.15;2.60;;;6.10;99.90;;;;;;5153471;27;20033;-66
2021/11/05 11:26:43;;;;;;;2.85;2.60;;;6.10;99.90;;;;;;5153676;27;20027;-66
2021/11/05 11:29:10;;;;;;;2.58;2.35;;;6.10;99.90;;;;;;5153948;27;20026;-65
2021/11/05 11:31:38;;;;;;;3.33;2.90;;;6.10;99.90;;;;;;5153921;27;20030;-66
2021/11/05 11:34:05;;;;;;;5.00;3.40;;;6.10;99.90;;;;;;5153273;27;20079;-65
2021/11/05 11:36:35;;;;;;;3.45;2.53;;;6.10;99.90;;;;;;5153771;27;20031;-64
2021/11/05 11:39:04;;;;;;;4.63;3.23;;;6.10;99.90;;;;;;5153839;27;20031;-64
2021/11/05 11:41:32;;;;;;;3.35;2.90;;;6.00;99.90;;;;;;5138197;27;20494;-65
2021/11/05 11:44:01;;;;;;;5.00;2.78;;;6.00;99.90;;;;;;5132767;28;20038;-68
2021/11/05 11:46:27;;;;;;;2.65;2.30;;;6.30;99.90;;;;;;5132742;28;20510;-66
2021/11/05 11:48:56;;;;;;;3.58;1.80;;;7.20;99.90;;;;;;5133071;28;20072;-67
2021/11/05 11:51:29;;;;;;;1.75;1.60;;;7.70;99.90;;;;;;5132935;27;20023;-67
2021/11/05 11:53:59;;;;;;;2.00;1.80;;;8.00;99.90;;;;;;5133163;27;20088;-67
2021/11/05 11:56:52;;;;;;;1.40;1.30;;;8.30;99.90;;;;;;5137237;27;20016;-67
2021/11/05 11:59:29;;;;;;;2.63;1.70;;;8.50;99.90;;;;;;5134701;27;20039;-67
2021/11/05 12:01:55;;;;;;;1.13;1.02;;;8.60;99.90;;;;;;5136925;27;20109;-67
2021/11/05 12:04:30;;;;;;;1.30;1.20;;;8.80;99.90;;;;;;5136808;27;20119;-67
2021/11/05 12:07:01;;;;;;;1.85;1.40;;;8.90;99.90;;;;;;5136994;27;20072;-67
2021/11/05 12:09:36;;;;;;;1.73;1.10;;;8.90;99.90;;;;;;5137111;27;20031;-66
2021/11/05 12:12:20;;;;;;;2.88;1.20;;;9.00;99.90;;;;;;5136781;27;20414;-66
2021/11/05 12:15:00;;;;;;;1.05;0.95;;;9.10;99.90;;;;;;5136625;27;20122;-66
2021/11/05 12:17:28;;;;;;;1.02;1.00;;;9.20;99.90;;;;;;5136548;27;20019;-66
2021/11/05 12:20:01;;;;;;;1.52;1.40;;;9.30;99.90;;;;;;5136627;27;20027;-66
2021/11/05 12:22:28;;;;;;;1.92;1.45;;;9.30;99.90;;;;;;5142314;27;20064;-66
2021/11/05 12:25:17;;;;;;;1.52;1.40;;;9.40;99.90;;;;;;5136159;27;20531;-65
2021/11/05 12:28:29;;;;;;;2.05;1.40;;;9.40;99.90;;;;;;5136527;27;20019;-64
2021/11/05 12:31:18;;;;;;;8.00;1.10;;;9.00;99.90;;;;;;5134018;27;20050;-71
2021/11/05 12:33:43;;;;;;;2.28;0.70;;;9.00;99.90;;;;;;5136305;27;20030;-69
2021/11/05 12:36:09;;;;;;;1.10;0.95;;;10.60;99.90;;;;;;5135990;27;20027;-66
2021/11/05 12:39:03;;;;;;;3.10;0.90;;;11.80;99.90;;;;;;5136512;27;20019;-66
2021/11/05 12:41:29;;;;;;;1.02;0.90;;;12.10;99.90;;;;;;5136117;27;20023;-66
2021/11/05 12:44:11;;;;;;;1.10;1.00;;;11.90;99.90;;;;;;5136044;27;20031;-66
2021/11/05 12:46:45;;;;;;;0.98;0.93;;;10.80;99.90;;;;;;5136032;27;20023;-66
2021/11/05 12:49:19;;;;;;;1.00;1.00;;;9.80;99.90;;;;;;5135961;27;20031;-66
2021/11/05 12:51:47;;;;;;;1.27;1.10;;;9.20;99.90;;;;;;5136158;27;20076;-66
2021/11/05 12:54:25;;;;;;;0.82;0.82;;;8.70;99.90;;;;;;5135774;27;20019;-66
2021/11/05 12:56:54;;;;;;;1.55;1.13;;;8.30;99.90;;;;;;5135690;27;20027;-66
2021/11/05 12:59:25;;;;;;;1.55;1.27;;;8.10;99.90;;;;;;5135813;27;20041;-66
2021/11/05 13:01:53;;;;;;;2.65;1.95;;;7.80;99.90;;;;;;5135571;27;20738;-66
2021/11/05 13:04:19;;;;;;;2.13;1.92;;;7.70;99.90;;;;;;5138152;27;20083;-66
2021/11/05 13:06:51;;;;;;;6.95;6.28;;;7.50;99.90;;;;;;5134614;27;20023;-66
2021/11/05 13:09:23;;;;;;;3.92;3.63;;;7.30;99.90;;;;;;5135590;27;20691;-66
2021/11/05 13:12:16;;;;;;;3.50;2.22;;;7.20;99.90;;;;;;5135597;27;20019;-66
2021/11/05 13:14:56;;;;;;;1.70;1.60;;;7.10;99.90;;;;;;5129078;27;20506;-66
2021/11/05 13:17:31;;;;;;;1.73;1.48;;;7.00;99.90;;;;;;5135841;27;20035;-65
2021/11/05 13:20:06;;;;;;;1.55;1.45;;;6.90;99.90;;;;;;5135591;27;20359;-66
2021/11/05 13:22:35;;;;;;;1.60;1.50;;;6.80;99.90;;;;;;5135415;27;20031;-66
2021/11/05 13:25:32;;;;;;;2.00;1.80;;;6.80;99.90;;;;;;5135085;27;20027;-66
2021/11/05 13:28:02;;;;;;;3.38;1.77;;;6.70;99.90;;;;;;5122050;27;20092;-66